sensor_id;sensor_type;location;lat;lon;timestamp;P1;durP1;ratioP1;P2;durP2;ratioP2
37365;SDS011;23239;51.504;7.456;2024-03-25T00:00:00;20.9;;;5.3;;
37365;SDS011;23239;51.504;7.456;2024-03-25T00:01:00;20.9;;;5.3;;
37365;SDS011;23239;51.504;7.456;2024-03-25T00:02:00;20.9;;;5.3;;
37365;SDS011;23239;51.504;7.456;2024-03-25T00:03:00;20.9;;;5.3;;
37365;SDS011;23239;51.504;7.456;2024-03-25T00:04:00;21.8;;;4.8;;
37365;SDS011;23239;51.504;7.456;2024-03-25T00:05:00;21.8;;;4.8;;
37365;SDS011;23239;51.504;7.456;2024-03-25T00:06:00;21.8;;;4.8;;
37365;SDS011;23239;51.504;7.456;2024-03-25T00:07:00;21.8;;;4.8;;
37365;SDS011;23239;51.504;7.456;2024-03-25T00:08:00;21.8;;;4.8;;
37365;SDS011;23239;51.504;7.456;2024-03-25T00:09:00;22.5;;;5.0;;
37365;SDS011;23239;51.504;7.456;2024-03-25T00:10:00;22.5;;;5.0;;
37365;SDS011;23239;51.504;7.456;2024-03-25T00:11:00;22.5;;;5.0;;
37365;SDS011;23239;51.504;7.456;2024-03-25T00:12:00;22.5;;;5.0;;
37365;SDS011;23239;51.504;7.456;2024-03-25T00:13:00;22.5;;;5.0;;
37365;SDS011;23239;51.504;7.456;2024-03-25T00:14:00;21.3;;;5.0;;
37365;SDS011;23239;51.504;7.456;2024-03-25T00:15:00;21.3;;;5.0;;
37365;SDS011;23239;51.504;7.456;2024-03-25T00:16:00;21.3;;;5.0;;
37365;SDS011;23239;51.504;7.456;2024-03-25T00:17:00;21.3;;;5.0;;
37365;SDS011;23239;51.504;7.456;2024-03-25T00:18:00;21.3;;;5.0;;
37365;SDS011;23239;51.504;7.456;2024-03-25T00:19:00;22.6;;;5.2;;
37365;SDS011;23239;51.504;7.456;2024-03-25T00:20:00;22.6;;;5.2;;
37365;SDS011;23239;51.504;7.456;2024-03-25T00:21:00;22.6;;;5.2;;
37365;SDS011;23239;51.504;7.456;2024-03-25T00:22:00;22.6;;;5.2;;
37365;SDS011;23239;51.504;7.456;2024-03-25T00:23:00;22.6;;;5.2;;
37365;SDS011;23239;51.504;7.456;2024-03-25T00:24:00;18.8;;;4.4;;
37365;SDS011;23239;51.504;7.456;2024-03-25T00:25:00;18.8;;;4.4;;
37365;SDS011;23239;51.504;7.456;2024-03-25T00:26:00;18.8;;;4.4;;
37365;SDS011;23239;51.504;7.456;2024-03-25T00:27:00;18.8;;;4.4;;
37365;SDS011;23239;51.504;7.456;2024-03-25T00:28:00;18.8;;;4.4;;
37365;SDS011;23239;51.504;7.456;2024-03-25T00:29:00;20.3;;;5.5;;
37365;SDS011;23239;51.504;7.456;2024-03-25T00:30:00;20.3;;;5.5;;
37365;SDS011;23239;51.504;7.456;2024-03-25T00:31:00;20.3;;;5.5;;
37365;SDS011;23239;51.504;7.456;2024-03-25T00:32:00;20.3;;;5.5;;
37365;SDS011;23239;51.504;7.456;2024-03-25T00:33:00;20.3;;;5.5;;
37365;SDS011;23239;51.504;7.456;2024-03-25T00:34:00;20.7;;;5.2;;
37365;SDS011;23239;51.504;7.456;2024-03-25T00:35:00;20.7;;;5.2;;
37365;SDS011;23239;51.504;7.456;2024-03-25T00:36:00;20.7;;;5.2;;
37365;SDS011;23239;51.504;7.456;2024-03-25T00:37:00;20.7;;;5.2;;
37365;SDS011;23239;51.504;7.456;2024-03-25T00:38:00;20.7;;;5.2;;
37365;SDS011;23239;51.504;7.456;2024-03-25T00:39:00;26.4;;;6.3;;
37365;SDS011;23239;51.504;7.456;2024-03-25T00:40:00;26.4;;;6.3;;
37365;SDS011;23239;51.504;7.456;2024-03-25T00:41:00;26.4;;;6.3;;
37365;SDS011;23239;51.504;7.456;2024-03-25T00:42:00;26.4;;;6.3;;
37365;SDS011;23239;51.504;7.456;2024-03-25T00:43:00;26.4;;;6.3;;
37365;SDS011;23239;51.504;7.456;2024-03-25T00:44:00;23.4;;;6.1;;
37365;SDS011;23239;51.504;7.456;2024-03-25T00:45:00;23.4;;;6.1;;
37365;SDS011;23239;51.504;7.456;2024-03-25T00:46:00;23.4;;;6.1;;
37365;SDS011;23239;51.504;7.456;2024-03-25T00:47:00;23.4;;;6.1;;
37365;SDS011;23239;51.504;7.456;2024-03-25T00:48:00;23.4;;;6.1;;
37365;SDS011;23239;51.504;7.456;2024-03-25T00:49:00;22.6;;;6.1;;
37365;SDS011;23239;51.504;7.456;2024-03-25T00:50:00;22.6;;;6.1;;
37365;SDS011;23239;51.504;7.456;2024-03-25T00:51:00;22.6;;;6.1;;
37365;SDS011;23239;51.504;7.456;2024-03-25T00:52:00;22.6;;;6.1;;
37365;SDS011;23239;51.504;7.456;2024-03-25T00:53:00;22.6;;;6.1;;
37365;SDS011;23239;51.504;7.456;2024-03-25T00:54:00;29.6;;;7.0;;
37365;SDS011;23239;51.504;7.456;2024-03-25T00:55:00;29.6;;;7.0;;
37365;SDS011;23239;51.504;7.456;2024-03-25T00:56:00;29.6;;;7.0;;
37365;SDS011;23239;51.504;7.456;2024-03-25T00:57:00;29.6;;;7.0;;
37365;SDS011;23239;51.504;7.456;2024-03-25T00:58:00;29.6;;;7.0;;
37365;SDS011;23239;51.504;7.456;2024-03-25T00:59:00;24.3;;;7.1;;
37365;SDS011;23239;51.504;7.456;2024-03-25T01:00:00;24.3;;;7.1;;
37365;SDS011;23239;51.504;7.456;2024-03-25T01:01:00;24.3;;;7.1;;
37365;SDS011;23239;51.504;7.456;2024-03-25T01:02:00;24.3;;;7.1;;
37365;SDS011;23239;51.504;7.456;2024-03-25T01:03:00;24.3;;;7.1;;
37365;SDS011;23239;51.504;7.456;2024-03-25T01:04:00;23.4;;;6.2;;
37365;SDS011;23239;51.504;7.456;2024-03-25T01:05:00;23.4;;;6.2;;
37365;SDS011;23239;51.504;7.456;2024-03-25T01:06:00;23.4;;;6.2;;
37365;SDS011;23239;51.504;7.456;2024-03-25T01:07:00;23.4;;;6.2;;
37365;SDS011;23239;51.504;7.456;2024-03-25T01:08:00;23.4;;;6.2;;
37365;SDS011;23239;51.504;7.456;2024-03-25T01:09:00;22.9;;;6.9;;
37365;SDS011;23239;51.504;7.456;2024-03-25T01:10:00;22.9;;;6.9;;
37365;SDS011;23239;51.504;7.456;2024-03-25T01:11:00;22.9;;;6.9;;
37365;SDS011;23239;51.504;7.456;2024-03-25T01:12:00;22.9;;;6.9;;
37365;SDS011;23239;51.504;7.456;2024-03-25T01:13:00;22.9;;;6.9;;
37365;SDS011;23239;51.504;7.456;2024-03-25T01:14:00;23.6;;;7.0;;
37365;SDS011;23239;51.504;7.456;2024-03-25T01:15:00;23.6;;;7.0;;
37365;SDS011;23239;51.504;7.456;2024-03-25T01:16:00;23.6;;;7.0;;
37365;SDS011;23239;51.504;7.456;2024-03-25T01:17:00;23.6;;;7.0;;
37365;SDS011;23239;51.504;7.456;2024-03-25T01:18:00;23.6;;;7.0;;
37365;SDS011;23239;51.504;7.456;2024-03-25T01:19:00;25.9;;;7.5;;
37365;SDS011;23239;51.504;7.456;2024-03-25T01:20:00;25.9;;;7.5;;
37365;SDS011;23239;51.504;7.456;2024-03-25T01:21:00;25.9;;;7.5;;
37365;SDS011;23239;51.504;7.456;2024-03-25T01:22:00;25.9;;;7.5;;
37365;SDS011;23239;51.504;7.456;2024-03-25T01:23:00;25.9;;;7.5;;
37365;SDS011;23239;51.504;7.456;2024-03-25T01:24:00;23.5;;;7.3;;
37365;SDS011;23239;51.504;7.456;2024-03-25T01:25:00;23.5;;;7.3;;
37365;SDS011;23239;51.504;7.456;2024-03-25T01:26:00;23.5;;;7.3;;
37365;SDS011;23239;51.504;7.456;2024-03-25T01:27:00;23.5;;;7.3;;
37365;SDS011;23239;51.504;7.456;2024-03-25T01:28:00;23.5;;;7.3;;
37365;SDS011;23239;51.504;7.456;2024-03-25T01:29:00;27.4;;;7.8;;
37365;SDS011;23239;51.504;7.456;2024-03-25T01:30:00;27.4;;;7.8;;
37365;SDS011;23239;51.504;7.456;2024-03-25T01:31:00;27.4;;;7.8;;
37365;SDS011;23239;51.504;7.456;2024-03-25T01:32:00;27.4;;;7.8;;
37365;SDS011;23239;51.504;7.456;2024-03-25T01:33:00;27.4;;;7.8;;
37365;SDS011;23239;51.504;7.456;2024-03-25T01:34:00;28.0;;;8.7;;
37365;SDS011;23239;51.504;7.456;2024-03-25T01:35:00;28.0;;;8.7;;
37365;SDS011;23239;51.504;7.456;2024-03-25T01:36:00;28.0;;;8.7;;
37365;SDS011;23239;51.504;7.456;2024-03-25T01:37:00;28.0;;;8.7;;
37365;SDS011;23239;51.504;7.456;2024-03-25T01:38:00;28.0;;;8.7;;
37365;SDS011;23239;51.504;7.456;2024-03-25T01:39:00;32.1;;;9.3;;
37365;SDS011;23239;51.504;7.456;2024-03-25T01:40:00;32.1;;;9.3;;
37365;SDS011;23239;51.504;7.456;2024-03-25T01:41:06;32.1;;;9.3;;
37365;SDS011;23239;51.504;7.456;2024-03-25T01:42:00;32.1;;;9.3;;
37365;SDS011;23239;51.504;7.456;2024-03-25T01:43:00;32.1;;;9.3;;
37365;SDS011;23239;51.504;7.456;2024-03-25T01:44:00;33.3;;;11.7;;
37365;SDS011;23239;51.504;7.456;2024-03-25T01:45:00;33.3;;;11.7;;
37365;SDS011;23239;51.504;7.456;2024-03-25T01:46:00;33.3;;;11.7;;
37365;SDS011;23239;51.504;7.456;2024-03-25T01:47:00;33.3;;;11.7;;
37365;SDS011;23239;51.504;7.456;2024-03-25T01:48:01;33.3;;;11.7;;
37365;SDS011;23239;51.504;7.456;2024-03-25T01:49:00;35.6;;;12.2;;
37365;SDS011;23239;51.504;7.456;2024-03-25T01:50:00;35.6;;;12.2;;
37365;SDS011;23239;51.504;7.456;2024-03-25T01:51:00;35.6;;;12.2;;
37365;SDS011;23239;51.504;7.456;2024-03-25T01:52:00;35.6;;;12.2;;
37365;SDS011;23239;51.504;7.456;2024-03-25T01:53:00;35.6;;;12.2;;
37365;SDS011;23239;51.504;7.456;2024-03-25T01:54:00;32.3;;;13.2;;
37365;SDS011;23239;51.504;7.456;2024-03-25T01:55:00;32.3;;;13.2;;
37365;SDS011;23239;51.504;7.456;2024-03-25T01:56:00;32.3;;;13.2;;
37365;SDS011;23239;51.504;7.456;2024-03-25T01:57:00;32.3;;;13.2;;
37365;SDS011;23239;51.504;7.456;2024-03-25T01:58:00;32.3;;;13.2;;
37365;SDS011;23239;51.504;7.456;2024-03-25T01:59:00;34.1;;;13.2;;
37365;SDS011;23239;51.504;7.456;2024-03-25T02:00:00;34.1;;;13.2;;
37365;SDS011;23239;51.504;7.456;2024-03-25T02:01:00;34.1;;;13.2;;
37365;SDS011;23239;51.504;7.456;2024-03-25T02:02:00;34.1;;;13.2;;
37365;SDS011;23239;51.504;7.456;2024-03-25T02:03:00;34.1;;;13.2;;
37365;SDS011;23239;51.504;7.456;2024-03-25T02:04:00;30.6;;;9.7;;
37365;SDS011;23239;51.504;7.456;2024-03-25T02:05:00;30.6;;;9.7;;
37365;SDS011;23239;51.504;7.456;2024-03-25T02:06:01;30.6;;;9.7;;
37365;SDS011;23239;51.504;7.456;2024-03-25T02:07:00;30.6;;;9.7;;
37365;SDS011;23239;51.504;7.456;2024-03-25T02:08:00;30.6;;;9.7;;
37365;SDS011;23239;51.504;7.456;2024-03-25T02:09:00;26.2;;;9.4;;
37365;SDS011;23239;51.504;7.456;2024-03-25T02:10:00;26.2;;;9.4;;
37365;SDS011;23239;51.504;7.456;2024-03-25T02:11:00;26.2;;;9.4;;
37365;SDS011;23239;51.504;7.456;2024-03-25T02:12:00;26.2;;;9.4;;
37365;SDS011;23239;51.504;7.456;2024-03-25T02:13:00;26.2;;;9.4;;
37365;SDS011;23239;51.504;7.456;2024-03-25T02:14:00;29.3;;;9.0;;
37365;SDS011;23239;51.504;7.456;2024-03-25T02:15:00;29.3;;;9.0;;
37365;SDS011;23239;51.504;7.456;2024-03-25T02:16:00;29.3;;;9.0;;
37365;SDS011;23239;51.504;7.456;2024-03-25T02:17:00;29.3;;;9.0;;
37365;SDS011;23239;51.504;7.456;2024-03-25T02:18:00;29.3;;;9.0;;
37365;SDS011;23239;51.504;7.456;2024-03-25T02:19:00;33.0;;;11.0;;
37365;SDS011;23239;51.504;7.456;2024-03-25T02:20:00;33.0;;;11.0;;
37365;SDS011;23239;51.504;7.456;2024-03-25T02:21:00;33.0;;;11.0;;
37365;SDS011;23239;51.504;7.456;2024-03-25T02:22:00;33.0;;;11.0;;
37365;SDS011;23239;51.504;7.456;2024-03-25T02:23:00;33.0;;;11.0;;
37365;SDS011;23239;51.504;7.456;2024-03-25T02:24:00;38.1;;;12.4;;
37365;SDS011;23239;51.504;7.456;2024-03-25T02:25:00;38.1;;;12.4;;
37365;SDS011;23239;51.504;7.456;2024-03-25T02:26:00;38.1;;;12.4;;
37365;SDS011;23239;51.504;7.456;2024-03-25T02:27:00;38.1;;;12.4;;
37365;SDS011;23239;51.504;7.456;2024-03-25T02:28:00;38.1;;;12.4;;
37365;SDS011;23239;51.504;7.456;2024-03-25T02:29:00;33.5;;;12.6;;
37365;SDS011;23239;51.504;7.456;2024-03-25T02:30:02;33.5;;;12.6;;
37365;SDS011;23239;51.504;7.456;2024-03-25T02:31:00;33.5;;;12.6;;
37365;SDS011;23239;51.504;7.456;2024-03-25T02:32:00;33.5;;;12.6;;
37365;SDS011;23239;51.504;7.456;2024-03-25T02:33:00;33.5;;;12.6;;
37365;SDS011;23239;51.504;7.456;2024-03-25T02:34:00;42.8;;;14.2;;
37365;SDS011;23239;51.504;7.456;2024-03-25T02:35:00;42.8;;;14.2;;
37365;SDS011;23239;51.504;7.456;2024-03-25T02:36:00;42.8;;;14.2;;
37365;SDS011;23239;51.504;7.456;2024-03-25T02:37:00;42.8;;;14.2;;
37365;SDS011;23239;51.504;7.456;2024-03-25T02:38:00;42.8;;;14.2;;
37365;SDS011;23239;51.504;7.456;2024-03-25T02:39:00;36.4;;;13.4;;
37365;SDS011;23239;51.504;7.456;2024-03-25T02:40:00;36.4;;;13.4;;
37365;SDS011;23239;51.504;7.456;2024-03-25T02:41:00;36.4;;;13.4;;
37365;SDS011;23239;51.504;7.456;2024-03-25T02:42:00;36.4;;;13.4;;
37365;SDS011;23239;51.504;7.456;2024-03-25T02:43:00;36.4;;;13.4;;
37365;SDS011;23239;51.504;7.456;2024-03-25T02:44:00;33.4;;;13.5;;
37365;SDS011;23239;51.504;7.456;2024-03-25T02:45:00;33.4;;;13.5;;
37365;SDS011;23239;51.504;7.456;2024-03-25T02:46:00;33.4;;;13.5;;
37365;SDS011;23239;51.504;7.456;2024-03-25T02:47:00;33.4;;;13.5;;
37365;SDS011;23239;51.504;7.456;2024-03-25T02:48:00;33.4;;;13.5;;
37365;SDS011;23239;51.504;7.456;2024-03-25T02:49:00;36.4;;;12.3;;
37365;SDS011;23239;51.504;7.456;2024-03-25T02:50:00;36.4;;;12.3;;
37365;SDS011;23239;51.504;7.456;2024-03-25T02:51:00;36.4;;;12.3;;
37365;SDS011;23239;51.504;7.456;2024-03-25T02:52:00;36.4;;;12.3;;
37365;SDS011;23239;51.504;7.456;2024-03-25T02:53:00;36.4;;;12.3;;
37365;SDS011;23239;51.504;7.456;2024-03-25T02:54:00;34.1;;;10.9;;
37365;SDS011;23239;51.504;7.456;2024-03-25T02:55:00;34.1;;;10.9;;
37365;SDS011;23239;51.504;7.456;2024-03-25T02:56:00;34.1;;;10.9;;
37365;SDS011;23239;51.504;7.456;2024-03-25T02:57:00;34.1;;;10.9;;
37365;SDS011;23239;51.504;7.456;2024-03-25T02:58:00;34.1;;;10.9;;
37365;SDS011;23239;51.504;7.456;2024-03-25T02:59:00;27.1;;;9.4;;
37365;SDS011;23239;51.504;7.456;2024-03-25T03:00:00;27.1;;;9.4;;
37365;SDS011;23239;51.504;7.456;2024-03-25T03:01:00;27.1;;;9.4;;
37365;SDS011;23239;51.504;7.456;2024-03-25T03:02:00;27.1;;;9.4;;
37365;SDS011;23239;51.504;7.456;2024-03-25T03:03:00;27.1;;;9.4;;
37365;SDS011;23239;51.504;7.456;2024-03-25T03:04:00;31.7;;;10.1;;
37365;SDS011;23239;51.504;7.456;2024-03-25T03:05:00;31.7;;;10.1;;
37365;SDS011;23239;51.504;7.456;2024-03-25T03:06:00;31.7;;;10.1;;
37365;SDS011;23239;51.504;7.456;2024-03-25T03:07:00;31.7;;;10.1;;
37365;SDS011;23239;51.504;7.456;2024-03-25T03:08:00;31.7;;;10.1;;
37365;SDS011;23239;51.504;7.456;2024-03-25T03:09:00;28.5;;;9.3;;
37365;SDS011;23239;51.504;7.456;2024-03-25T03:10:00;28.5;;;9.3;;
37365;SDS011;23239;51.504;7.456;2024-03-25T03:11:00;28.5;;;9.3;;
37365;SDS011;23239;51.504;7.456;2024-03-25T03:12:00;28.5;;;9.3;;
37365;SDS011;23239;51.504;7.456;2024-03-25T03:13:00;28.5;;;9.3;;
37365;SDS011;23239;51.504;7.456;2024-03-25T03:14:00;28.1;;;8.6;;
37365;SDS011;23239;51.504;7.456;2024-03-25T03:15:00;28.1;;;8.6;;
37365;SDS011;23239;51.504;7.456;2024-03-25T03:16:00;28.1;;;8.6;;
37365;SDS011;23239;51.504;7.456;2024-03-25T03:17:00;28.1;;;8.6;;
37365;SDS011;23239;51.504;7.456;2024-03-25T03:18:00;28.1;;;8.6;;
37365;SDS011;23239;51.504;7.456;2024-03-25T03:19:00;29.5;;;7.8;;
37365;SDS011;23239;51.504;7.456;2024-03-25T03:20:00;29.5;;;7.8;;
37365;SDS011;23239;51.504;7.456;2024-03-25T03:21:00;29.5;;;7.8;;
37365;SDS011;23239;51.504;7.456;2024-03-25T03:22:00;29.5;;;7.8;;
37365;SDS011;23239;51.504;7.456;2024-03-25T03:23:00;29.5;;;7.8;;
37365;SDS011;23239;51.504;7.456;2024-03-25T03:24:00;26.4;;;8.0;;
37365;SDS011;23239;51.504;7.456;2024-03-25T03:25:00;26.4;;;8.0;;
37365;SDS011;23239;51.504;7.456;2024-03-25T03:26:00;26.4;;;8.0;;
37365;SDS011;23239;51.504;7.456;2024-03-25T03:27:00;26.4;;;8.0;;
37365;SDS011;23239;51.504;7.456;2024-03-25T03:28:00;26.4;;;8.0;;
37365;SDS011;23239;51.504;7.456;2024-03-25T03:29:00;26.9;;;7.9;;
37365;SDS011;23239;51.504;7.456;2024-03-25T03:30:00;26.9;;;7.9;;
37365;SDS011;23239;51.504;7.456;2024-03-25T03:31:00;26.9;;;7.9;;
37365;SDS011;23239;51.504;7.456;2024-03-25T03:32:00;26.9;;;7.9;;
37365;SDS011;23239;51.504;7.456;2024-03-25T03:33:00;26.9;;;7.9;;
37365;SDS011;23239;51.504;7.456;2024-03-25T03:34:00;30.5;;;7.7;;
37365;SDS011;23239;51.504;7.456;2024-03-25T03:35:00;30.5;;;7.7;;
37365;SDS011;23239;51.504;7.456;2024-03-25T03:36:00;30.5;;;7.7;;
37365;SDS011;23239;51.504;7.456;2024-03-25T03:37:00;30.5;;;7.7;;
37365;SDS011;23239;51.504;7.456;2024-03-25T03:38:00;30.5;;;7.7;;
37365;SDS011;23239;51.504;7.456;2024-03-25T03:39:00;25.1;;;6.9;;
37365;SDS011;23239;51.504;7.456;2024-03-25T03:40:00;25.1;;;6.9;;
37365;SDS011;23239;51.504;7.456;2024-03-25T03:41:01;25.1;;;6.9;;
37365;SDS011;23239;51.504;7.456;2024-03-25T03:42:00;25.1;;;6.9;;
37365;SDS011;23239;51.504;7.456;2024-03-25T03:43:00;25.1;;;6.9;;
37365;SDS011;23239;51.504;7.456;2024-03-25T03:44:00;24.4;;;6.6;;
37365;SDS011;23239;51.504;7.456;2024-03-25T03:45:00;24.4;;;6.6;;
37365;SDS011;23239;51.504;7.456;2024-03-25T03:46:00;24.4;;;6.6;;
37365;SDS011;23239;51.504;7.456;2024-03-25T03:47:00;24.4;;;6.6;;
37365;SDS011;23239;51.504;7.456;2024-03-25T03:48:00;24.4;;;6.6;;
37365;SDS011;23239;51.504;7.456;2024-03-25T03:49:00;25.0;;;6.5;;
37365;SDS011;23239;51.504;7.456;2024-03-25T03:50:00;25.0;;;6.5;;
37365;SDS011;23239;51.504;7.456;2024-03-25T03:51:00;25.0;;;6.5;;
37365;SDS011;23239;51.504;7.456;2024-03-25T03:52:00;25.0;;;6.5;;
37365;SDS011;23239;51.504;7.456;2024-03-25T03:53:00;25.0;;;6.5;;
37365;SDS011;23239;51.504;7.456;2024-03-25T03:54:00;24.4;;;6.9;;
37365;SDS011;23239;51.504;7.456;2024-03-25T03:55:00;24.4;;;6.9;;
37365;SDS011;23239;51.504;7.456;2024-03-25T03:56:01;24.4;;;6.9;;
37365;SDS011;23239;51.504;7.456;2024-03-25T03:57:00;24.4;;;6.9;;
37365;SDS011;23239;51.504;7.456;2024-03-25T03:58:00;24.4;;;6.9;;
37365;SDS011;23239;51.504;7.456;2024-03-25T03:59:00;27.6;;;7.0;;
37365;SDS011;23239;51.504;7.456;2024-03-25T04:00:00;27.6;;;7.0;;
37365;SDS011;23239;51.504;7.456;2024-03-25T04:01:00;27.6;;;7.0;;
37365;SDS011;23239;51.504;7.456;2024-03-25T04:02:00;27.6;;;7.0;;
37365;SDS011;23239;51.504;7.456;2024-03-25T04:03:00;27.6;;;7.0;;
37365;SDS011;23239;51.504;7.456;2024-03-25T04:04:00;26.7;;;7.8;;
37365;SDS011;23239;51.504;7.456;2024-03-25T04:05:00;26.7;;;7.8;;
37365;SDS011;23239;51.504;7.456;2024-03-25T04:06:06;26.7;;;7.8;;
37365;SDS011;23239;51.504;7.456;2024-03-25T04:07:01;26.7;;;7.8;;
37365;SDS011;23239;51.504;7.456;2024-03-25T04:08:00;26.7;;;7.8;;
37365;SDS011;23239;51.504;7.456;2024-03-25T04:09:00;24.4;;;7.8;;
37365;SDS011;23239;51.504;7.456;2024-03-25T04:10:00;24.4;;;7.8;;
37365;SDS011;23239;51.504;7.456;2024-03-25T04:11:01;24.4;;;7.8;;
37365;SDS011;23239;51.504;7.456;2024-03-25T04:12:00;24.4;;;7.8;;
37365;SDS011;23239;51.504;7.456;2024-03-25T04:13:00;24.4;;;7.8;;
37365;SDS011;23239;51.504;7.456;2024-03-25T04:14:00;28.0;;;8.0;;
37365;SDS011;23239;51.504;7.456;2024-03-25T04:15:00;28.0;;;8.0;;
37365;SDS011;23239;51.504;7.456;2024-03-25T04:16:00;28.0;;;8.0;;
37365;SDS011;23239;51.504;7.456;2024-03-25T04:17:00;28.0;;;8.0;;
37365;SDS011;23239;51.504;7.456;2024-03-25T04:18:00;28.0;;;8.0;;
37365;SDS011;23239;51.504;7.456;2024-03-25T04:19:00;25.4;;;8.1;;
37365;SDS011;23239;51.504;7.456;2024-03-25T04:20:00;25.4;;;8.1;;
37365;SDS011;23239;51.504;7.456;2024-03-25T04:21:00;25.4;;;8.1;;
37365;SDS011;23239;51.504;7.456;2024-03-25T04:22:00;25.4;;;8.1;;
37365;SDS011;23239;51.504;7.456;2024-03-25T04:23:00;25.4;;;8.1;;
37365;SDS011;23239;51.504;7.456;2024-03-25T04:24:00;27.2;;;7.5;;
37365;SDS011;23239;51.504;7.456;2024-03-25T04:25:00;27.2;;;7.5;;
37365;SDS011;23239;51.504;7.456;2024-03-25T04:26:00;27.2;;;7.5;;
37365;SDS011;23239;51.504;7.456;2024-03-25T04:27:00;27.2;;;7.5;;
37365;SDS011;23239;51.504;7.456;2024-03-25T04:28:00;27.2;;;7.5;;
37365;SDS011;23239;51.504;7.456;2024-03-25T04:29:00;27.6;;;8.3;;
37365;SDS011;23239;51.504;7.456;2024-03-25T04:30:00;27.6;;;8.3;;
37365;SDS011;23239;51.504;7.456;2024-03-25T04:31:00;27.6;;;8.3;;
37365;SDS011;23239;51.504;7.456;2024-03-25T04:32:00;27.6;;;8.3;;
37365;SDS011;23239;51.504;7.456;2024-03-25T04:33:00;27.6;;;8.3;;
37365;SDS011;23239;51.504;7.456;2024-03-25T04:34:00;27.5;;;7.7;;
37365;SDS011;23239;51.504;7.456;2024-03-25T04:35:00;27.5;;;7.7;;
37365;SDS011;23239;51.504;7.456;2024-03-25T04:36:00;27.5;;;7.7;;
37365;SDS011;23239;51.504;7.456;2024-03-25T04:37:00;27.5;;;7.7;;
37365;SDS011;23239;51.504;7.456;2024-03-25T04:38:00;27.5;;;7.7;;
37365;SDS011;23239;51.504;7.456;2024-03-25T04:39:00;27.3;;;8.7;;
37365;SDS011;23239;51.504;7.456;2024-03-25T04:40:00;27.3;;;8.7;;
37365;SDS011;23239;51.504;7.456;2024-03-25T04:41:00;27.3;;;8.7;;
37365;SDS011;23239;51.504;7.456;2024-03-25T04:42:00;27.3;;;8.7;;
37365;SDS011;23239;51.504;7.456;2024-03-25T04:43:00;27.3;;;8.7;;
37365;SDS011;23239;51.504;7.456;2024-03-25T04:44:00;27.2;;;8.1;;
37365;SDS011;23239;51.504;7.456;2024-03-25T04:45:00;27.2;;;8.1;;
37365;SDS011;23239;51.504;7.456;2024-03-25T04:46:00;27.2;;;8.1;;
37365;SDS011;23239;51.504;7.456;2024-03-25T04:47:00;27.2;;;8.1;;
37365;SDS011;23239;51.504;7.456;2024-03-25T04:48:00;27.2;;;8.1;;
37365;SDS011;23239;51.504;7.456;2024-03-25T04:49:00;29.7;;;8.9;;
37365;SDS011;23239;51.504;7.456;2024-03-25T04:50:00;29.7;;;8.9;;
37365;SDS011;23239;51.504;7.456;2024-03-25T04:51:00;29.7;;;8.9;;
37365;SDS011;23239;51.504;7.456;2024-03-25T04:52:00;29.7;;;8.9;;
37365;SDS011;23239;51.504;7.456;2024-03-25T04:53:00;29.7;;;8.9;;
37365;SDS011;23239;51.504;7.456;2024-03-25T04:54:00;29.0;;;8.8;;
37365;SDS011;23239;51.504;7.456;2024-03-25T04:55:00;29.0;;;8.8;;
37365;SDS011;23239;51.504;7.456;2024-03-25T04:56:00;29.0;;;8.8;;
37365;SDS011;23239;51.504;7.456;2024-03-25T04:57:00;29.0;;;8.8;;
37365;SDS011;23239;51.504;7.456;2024-03-25T04:58:00;29.0;;;8.8;;
37365;SDS011;23239;51.504;7.456;2024-03-25T04:59:00;27.8;;;9.0;;
37365;SDS011;23239;51.504;7.456;2024-03-25T05:00:00;27.8;;;9.0;;
37365;SDS011;23239;51.504;7.456;2024-03-25T05:01:00;27.8;;;9.0;;
37365;SDS011;23239;51.504;7.456;2024-03-25T05:02:00;27.8;;;9.0;;
37365;SDS011;23239;51.504;7.456;2024-03-25T05:03:00;27.8;;;9.0;;
37365;SDS011;23239;51.504;7.456;2024-03-25T05:04:00;32.7;;;9.5;;
37365;SDS011;23239;51.504;7.456;2024-03-25T05:05:00;32.7;;;9.5;;
37365;SDS011;23239;51.504;7.456;2024-03-25T05:06:00;32.7;;;9.5;;
37365;SDS011;23239;51.504;7.456;2024-03-25T05:07:00;32.7;;;9.5;;
37365;SDS011;23239;51.504;7.456;2024-03-25T05:08:00;32.7;;;9.5;;
37365;SDS011;23239;51.504;7.456;2024-03-25T05:09:00;26.8;;;8.9;;
37365;SDS011;23239;51.504;7.456;2024-03-25T05:10:00;26.8;;;8.9;;
37365;SDS011;23239;51.504;7.456;2024-03-25T05:11:00;26.8;;;8.9;;
37365;SDS011;23239;51.504;7.456;2024-03-25T05:12:00;26.8;;;8.9;;
37365;SDS011;23239;51.504;7.456;2024-03-25T05:13:00;26.8;;;8.9;;
37365;SDS011;23239;51.504;7.456;2024-03-25T05:14:00;25.5;;;8.3;;
37365;SDS011;23239;51.504;7.456;2024-03-25T05:15:00;25.5;;;8.3;;
37365;SDS011;23239;51.504;7.456;2024-03-25T05:16:00;25.5;;;8.3;;
37365;SDS011;23239;51.504;7.456;2024-03-25T05:17:00;25.5;;;8.3;;
37365;SDS011;23239;51.504;7.456;2024-03-25T05:18:00;25.5;;;8.3;;
37365;SDS011;23239;51.504;7.456;2024-03-25T05:19:00;30.7;;;8.8;;
37365;SDS011;23239;51.504;7.456;2024-03-25T05:20:00;30.7;;;8.8;;
37365;SDS011;23239;51.504;7.456;2024-03-25T05:21:00;30.7;;;8.8;;
37365;SDS011;23239;51.504;7.456;2024-03-25T05:22:00;30.7;;;8.8;;
37365;SDS011;23239;51.504;7.456;2024-03-25T05:23:00;30.7;;;8.8;;
37365;SDS011;23239;51.504;7.456;2024-03-25T05:24:00;27.0;;;8.0;;
37365;SDS011;23239;51.504;7.456;2024-03-25T05:25:00;27.0;;;8.0;;
37365;SDS011;23239;51.504;7.456;2024-03-25T05:26:00;27.0;;;8.0;;
37365;SDS011;23239;51.504;7.456;2024-03-25T05:27:00;27.0;;;8.0;;
37365;SDS011;23239;51.504;7.456;2024-03-25T05:28:00;27.0;;;8.0;;
37365;SDS011;23239;51.504;7.456;2024-03-25T05:29:00;26.7;;;8.6;;
37365;SDS011;23239;51.504;7.456;2024-03-25T05:30:00;26.7;;;8.6;;
37365;SDS011;23239;51.504;7.456;2024-03-25T05:31:04;26.7;;;8.6;;
37365;SDS011;23239;51.504;7.456;2024-03-25T05:32:00;26.7;;;8.6;;
37365;SDS011;23239;51.504;7.456;2024-03-25T05:33:00;26.7;;;8.6;;
37365;SDS011;23239;51.504;7.456;2024-03-25T05:34:00;25.1;;;8.5;;
37365;SDS011;23239;51.504;7.456;2024-03-25T05:35:00;25.1;;;8.5;;
37365;SDS011;23239;51.504;7.456;2024-03-25T05:36:00;25.1;;;8.5;;
37365;SDS011;23239;51.504;7.456;2024-03-25T05:37:00;25.1;;;8.5;;
37365;SDS011;23239;51.504;7.456;2024-03-25T05:38:00;25.1;;;8.5;;
37365;SDS011;23239;51.504;7.456;2024-03-25T05:39:00;23.3;;;8.2;;
37365;SDS011;23239;51.504;7.456;2024-03-25T05:40:00;23.3;;;8.2;;
37365;SDS011;23239;51.504;7.456;2024-03-25T05:41:00;23.3;;;8.2;;
37365;SDS011;23239;51.504;7.456;2024-03-25T05:42:00;23.3;;;8.2;;
37365;SDS011;23239;51.504;7.456;2024-03-25T05:43:00;23.3;;;8.2;;
37365;SDS011;23239;51.504;7.456;2024-03-25T05:44:00;29.2;;;8.3;;
37365;SDS011;23239;51.504;7.456;2024-03-25T05:45:00;29.2;;;8.3;;
37365;SDS011;23239;51.504;7.456;2024-03-25T05:46:00;29.2;;;8.3;;
37365;SDS011;23239;51.504;7.456;2024-03-25T05:47:00;29.2;;;8.3;;
37365;SDS011;23239;51.504;7.456;2024-03-25T05:48:00;29.2;;;8.3;;
37365;SDS011;23239;51.504;7.456;2024-03-25T05:49:01;27.6;;;8.2;;
37365;SDS011;23239;51.504;7.456;2024-03-25T05:50:00;27.6;;;8.2;;
37365;SDS011;23239;51.504;7.456;2024-03-25T05:51:00;27.6;;;8.2;;
37365;SDS011;23239;51.504;7.456;2024-03-25T05:52:00;27.6;;;8.2;;
37365;SDS011;23239;51.504;7.456;2024-03-25T05:53:00;27.6;;;8.2;;
37365;SDS011;23239;51.504;7.456;2024-03-25T05:54:00;23.5;;;7.6;;
37365;SDS011;23239;51.504;7.456;2024-03-25T05:55:00;23.5;;;7.6;;
37365;SDS011;23239;51.504;7.456;2024-03-25T05:56:00;23.5;;;7.6;;
37365;SDS011;23239;51.504;7.456;2024-03-25T05:57:00;23.5;;;7.6;;
37365;SDS011;23239;51.504;7.456;2024-03-25T05:58:00;23.5;;;7.6;;
37365;SDS011;23239;51.504;7.456;2024-03-25T05:59:00;28.6;;;8.6;;
37365;SDS011;23239;51.504;7.456;2024-03-25T06:00:00;28.6;;;8.6;;
37365;SDS011;23239;51.504;7.456;2024-03-25T06:01:00;28.6;;;8.6;;
37365;SDS011;23239;51.504;7.456;2024-03-25T06:02:00;28.6;;;8.6;;
37365;SDS011;23239;51.504;7.456;2024-03-25T06:03:00;28.6;;;8.6;;
37365;SDS011;23239;51.504;7.456;2024-03-25T06:04:00;27.4;;;8.5;;
37365;SDS011;23239;51.504;7.456;2024-03-25T06:05:00;27.4;;;8.5;;